sensor_id;sensor_type;location;lat;lon;timestamp;pressure;altitude;pressure_sealevel;temperature;humidity
75414;BME280;64758;52.122;5.404;2023-02-26T00:01:17;102192.03;;;0.26;92.61
75414;BME280;64758;52.122;5.404;2023-02-26T00:03:51;102186.47;;;0.32;91.72
75414;BME280;64758;52.122;5.404;2023-02-26T00:06:18;102197.31;;;0.40;91.23
75414;BME280;64758;52.122;5.404;2023-02-26T00:08:45;102208.16;;;0.48;90.07
75414;BME280;64758;52.122;5.404;2023-02-26T00:11:11;102207.13;;;0.51;89.79
75414;BME280;64758;52.122;5.404;2023-02-26T00:13:39;102204.78;;;0.46;89.30
75414;BME280;64758;52.122;5.404;2023-02-26T00:18:41;102218.50;;;0.50;88.15
75414;BME280;64758;52.122;5.404;2023-02-26T00:21:15;102228.03;;;0.51;88.13
75414;BME280;64758;52.122;5.404;2023-02-26T00:23:41;102239.34;;;0.51;87.17
75414;BME280;64758;52.122;5.404;2023-02-26T00:26:09;102231.16;;;0.57;86.62
75414;BME280;64758;52.122;5.404;2023-02-26T00:28:36;102238.16;;;0.71;85.75
75414;BME280;64758;52.122;5.404;2023-02-26T00:31:03;102247.53;;;0.75;85.65
75414;BME280;64758;52.122;5.404;2023-02-26T00:33:30;102258.38;;;0.83;85.07
75414;BME280;64758;52.122;5.404;2023-02-26T00:36:08;102251.47;;;0.82;84.95
75414;BME280;64758;52.122;5.404;2023-02-26T00:38:42;102257.75;;;0.93;84.31
75414;BME280;64758;52.122;5.404;2023-02-26T00:41:12;102263.81;;;0.94;84.63
75414;BME280;64758;52.122;5.404;2023-02-26T00:43:40;102267.88;;;0.99;84.18
75414;BME280;64758;52.122;5.404;2023-02-26T00:54:21;102273.28;;;0.96;83.98
75414;BME280;64758;52.122;5.404;2023-02-26T00:56:48;102271.59;;;0.95;83.63
75414;BME280;64758;52.122;5.404;2023-02-26T00:59:16;102272.78;;;0.90;83.61
75414;BME280;64758;52.122;5.404;2023-02-26T01:01:43;102280.53;;;0.91;83.55
75414;BME280;64758;52.122;5.404;2023-02-26T01:04:11;102271.94;;;0.89;82.63
75414;BME280;64758;52.122;5.404;2023-02-26T01:06:47;102265.84;;;0.89;82.74
75414;BME280;64758;52.122;5.404;2023-02-26T01:12:02;102279.03;;;0.87;82.63
75414;BME280;64758;52.122;5.404;2023-02-26T01:14:30;102276.50;;;0.86;82.78
75414;BME280;64758;52.122;5.404;2023-02-26T01:17:11;102287.06;;;0.84;83.06
75414;BME280;64758;52.122;5.404;2023-02-26T01:19:52;102280.91;;;0.85;83.03
75414;BME280;64758;52.122;5.404;2023-02-26T01:23:02;102285.94;;;0.88;82.52
75414;BME280;64758;52.122;5.404;2023-02-26T01:25:38;102285.09;;;0.88;82.54
75414;BME280;64758;52.122;5.404;2023-02-26T01:28:07;102291.94;;;0.90;82.66
75414;BME280;64758;52.122;5.404;2023-02-26T01:30:34;102294.56;;;0.90;82.00
75414;BME280;64758;52.122;5.404;2023-02-26T01:33:19;102296.25;;;0.91;81.50
75414;BME280;64758;52.122;5.404;2023-02-26T01:36:02;102302.28;;;0.92;81.45
75414;BME280;64758;52.122;5.404;2023-02-26T01:38:57;102292.13;;;0.87;81.28
75414;BME280;64758;52.122;5.404;2023-02-26T01:41:46;102304.22;;;0.74;81.70
75414;BME280;64758;52.122;5.404;2023-02-26T01:44:34;102301.09;;;0.68;81.63
75414;BME280;64758;52.122;5.404;2023-02-26T01:49:43;102318.81;;;0.63;81.75
75414;BME280;64758;52.122;5.404;2023-02-26T01:55:18;102318.50;;;0.53;81.65
75414;BME280;64758;52.122;5.404;2023-02-26T01:57:45;102308.56;;;0.44;81.73
75414;BME280;64758;52.122;5.404;2023-02-26T02:00:14;102315.63;;;0.42;81.69
75414;BME280;64758;52.122;5.404;2023-02-26T02:02:41;102328.53;;;0.45;82.00
75414;BME280;64758;52.122;5.404;2023-02-26T02:05:38;102327.84;;;0.42;82.02
75414;BME280;64758;52.122;5.404;2023-02-26T02:08:00;102325.91;;;0.45;81.60
75414;BME280;64758;52.122;5.404;2023-02-26T02:10:27;102329.19;;;0.49;80.97
75414;BME280;64758;52.122;5.404;2023-02-26T02:13:01;102335.28;;;0.49;81.63
75414;BME280;64758;52.122;5.404;2023-02-26T02:24:20;102338.16;;;0.29;81.36
75414;BME280;64758;52.122;5.404;2023-02-26T02:31:54;102357.59;;;0.24;81.38
75414;BME280;64758;52.122;5.404;2023-02-26T02:37:01;102362.91;;;0.22;81.34
75414;BME280;64758;52.122;5.404;2023-02-26T02:39:41;102362.50;;;0.14;81.08
75414;BME280;64758;52.122;5.404;2023-02-26T02:44:45;102371.53;;;0.24;80.21
75414;BME280;64758;52.122;5.404;2023-02-26T02:47:14;102373.53;;;0.19;80.11
75414;BME280;64758;52.122;5.404;2023-02-26T02:49:51;102382.28;;;0.18;79.94
75414;BME280;64758;52.122;5.404;2023-02-26T02:52:32;102376.53;;;0.12;80.35
75414;BME280;64758;52.122;5.404;2023-02-26T02:55:05;102377.47;;;0.11;80.12
75414;BME280;64758;52.122;5.404;2023-02-26T02:57:36;102378.22;;;0.13;79.93
75414;BME280;64758;52.122;5.404;2023-02-26T03:00:08;102383.38;;;0.14;79.64
75414;BME280;64758;52.122;5.404;2023-02-26T03:02:59;102383.44;;;0.13;79.88
75414;BME280;64758;52.122;5.404;2023-02-26T03:05:28;102385.47;;;0.08;79.21
75414;BME280;64758;52.122;5.404;2023-02-26T03:07:59;102395.25;;;0.04;79.24
75414;BME280;64758;52.122;5.404;2023-02-26T03:10:28;102385.06;;;0.00;79.20
75414;BME280;64758;52.122;5.404;2023-02-26T03:12:55;102397.25;;;-0.01;79.63
75414;BME280;64758;52.122;5.404;2023-02-26T03:15:36;102397.16;;;0.01;78.41
75414;BME280;64758;52.122;5.404;2023-02-26T03:21:01;102399.72;;;0.02;78.25
75414;BME280;64758;52.122;5.404;2023-02-26T03:23:34;102402.47;;;-0.01;78.79
75414;BME280;64758;52.122;5.404;2023-02-26T03:26:23;102409.03;;;-0.09;78.58
75414;BME280;64758;52.122;5.404;2023-02-26T03:29:00;102397.75;;;-0.09;78.68
75414;BME280;64758;52.122;5.404;2023-02-26T03:31:33;102407.09;;;-0.05;78.31
75414;BME280;64758;52.122;5.404;2023-02-26T03:34:47;102409.66;;;-0.04;78.55
75414;BME280;64758;52.122;5.404;2023-02-26T03:36:58;102413.25;;;-0.06;78.00
75414;BME280;64758;52.122;5.404;2023-02-26T03:39:32;102416.00;;;-0.09;77.83
75414;BME280;64758;52.122;5.404;2023-02-26T03:42:14;102419.56;;;-0.10;78.59
75414;BME280;64758;52.122;5.404;2023-02-26T03:44:51;102424.09;;;-0.14;78.26
75414;BME280;64758;52.122;5.404;2023-02-26T03:47:19;102423.09;;;-0.11;77.98
75414;BME280;64758;52.122;5.404;2023-02-26T03:49:58;102436.22;;;-0.13;78.30
75414;BME280;64758;52.122;5.404;2023-02-26T03:52:30;102422.78;;;-0.22;78.47
75414;BME280;64758;52.122;5.404;2023-02-26T03:55:04;102432.56;;;-0.26;77.98
75414;BME280;64758;52.122;5.404;2023-02-26T03:57:34;102442.16;;;-0.26;78.44
75414;BME280;64758;52.122;5.404;2023-02-26T04:00:01;102434.56;;;-0.31;78.26
75414;BME280;64758;52.122;5.404;2023-02-26T04:02:33;102450.13;;;-0.29;78.43
75414;BME280;64758;52.122;5.404;2023-02-26T04:05:09;102443.69;;;-0.39;78.36
75414;BME280;64758;52.122;5.404;2023-02-26T04:07:38;102453.97;;;-0.36;78.51
75414;BME280;64758;52.122;5.404;2023-02-26T04:10:05;102449.66;;;-0.37;78.57
75414;BME280;64758;52.122;5.404;2023-02-26T04:12:33;102445.31;;;-0.37;78.42
75414;BME280;64758;52.122;5.404;2023-02-26T04:14:59;102454.91;;;-0.37;78.39
75414;BME280;64758;52.122;5.404;2023-02-26T04:17:26;102454.38;;;-0.44;78.93
75414;BME280;64758;52.122;5.404;2023-02-26T04:19:55;102476.06;;;-0.43;78.99
75414;BME280;64758;52.122;5.404;2023-02-26T04:22:22;102473.72;;;-0.48;78.53
75414;BME280;64758;52.122;5.404;2023-02-26T04:24:48;102474.69;;;-0.50;78.58
75414;BME280;64758;52.122;5.404;2023-02-26T04:27:15;102478.16;;;-0.50;78.58
75414;BME280;64758;52.122;5.404;2023-02-26T04:29:41;102475.56;;;-0.50;78.69
75414;BME280;64758;52.122;5.404;2023-02-26T04:32:08;102476.69;;;-0.55;79.30
75414;BME280;64758;52.122;5.404;2023-02-26T04:34:34;102483.75;;;-0.57;78.79
75414;BME280;64758;52.122;5.404;2023-02-26T04:37:01;102485.44;;;-0.56;79.21
75414;BME280;64758;52.122;5.404;2023-02-26T04:39:27;102496.88;;;-0.59;78.69
75414;BME280;64758;52.122;5.404;2023-02-26T04:41:54;102494.31;;;-0.60;79.07
75414;BME280;64758;52.122;5.404;2023-02-26T04:44:20;102495.94;;;-0.58;79.21
75414;BME280;64758;52.122;5.404;2023-02-26T04:46:47;102492.47;;;-0.58;78.33
75414;BME280;64758;52.122;5.404;2023-02-26T04:49:13;102497.84;;;-0.61;78.78
75414;BME280;64758;52.122;5.404;2023-02-26T04:51:40;102508.28;;;-0.61;78.52
75414;BME280;64758;52.122;5.404;2023-02-26T04:54:06;102504.91;;;-0.63;78.99
75414;BME280;64758;52.122;5.404;2023-02-26T04:56:33;102513.78;;;-0.67;79.41
75414;BME280;64758;52.122;5.404;2023-02-26T04:58:59;102508.09;;;-0.75;78.78
75414;BME280;64758;52.122;5.404;2023-02-26T05:01:26;102513.31;;;-0.75;79.30
75414;BME280;64758;52.122;5.404;2023-02-26T05:03:53;102515.31;;;-0.80;79.08
75414;BME280;64758;52.122;5.404;2023-02-26T05:06:19;102523.06;;;-0.79;79.21
75414;BME280;64758;52.122;5.404;2023-02-26T05:08:46;102523.22;;;-0.82;78.89
75414;BME280;64758;52.122;5.404;2023-02-26T05:11:12;102537.81;;;-0.78;78.84
75414;BME280;64758;52.122;5.404;2023-02-26T05:13:39;102533.56;;;-0.80;79.64
75414;BME280;64758;52.122;5.404;2023-02-26T05:16:06;102539.34;;;-0.74;79.44
75414;BME280;64758;52.122;5.404;2023-02-26T05:18:33;102540.47;;;-0.79;78.99
75414;BME280;64758;52.122;5.404;2023-02-26T05:20:59;102548.22;;;-0.78;78.95
75414;BME280;64758;52.122;5.404;2023-02-26T05:23:26;102545.06;;;-0.84;79.68
75414;BME280;64758;52.122;5.404;2023-02-26T05:25:57;102553.75;;;-0.84;79.39
75414;BME280;64758;52.122;5.404;2023-02-26T05:28:25;102548.19;;;-0.95;79.41
75414;BME280;64758;52.122;5.404;2023-02-26T05:30:52;102557.59;;;-0.92;79.78
75414;BME280;64758;52.122;5.404;2023-02-26T05:33:19;102556.06;;;-0.96;79.03
75414;BME280;64758;52.122;5.404;2023-02-26T05:35:45;102562.81;;;-0.92;78.83
75414;BME280;64758;52.122;5.404;2023-02-26T05:38:14;102569.81;;;-0.93;79.30
75414;BME280;64758;52.122;5.404;2023-02-26T05:40:40;102555.22;;;-0.97;79.58
75414;BME280;64758;52.122;5.404;2023-02-26T05:43:07;102575.84;;;-0.92;79.92
75414;BME280;64758;52.122;5.404;2023-02-26T05:45:34;102572.63;;;-0.97;79.05
75414;BME280;64758;52.122;5.404;2023-02-26T05:48:00;102586.50;;;-0.97;79.96
75414;BME280;64758;52.122;5.404;2023-02-26T05:50:27;102583.19;;;-1.00;79.69
75414;BME280;64758;52.122;5.404;2023-02-26T05:52:55;102584.38;;;-1.07;79.57
75414;BME280;64758;52.122;5.404;2023-02-26T05:55:22;102596.50;;;-1.06;80.23
75414;BME280;64758;52.122;5.404;2023-02-26T05:57:48;102593.25;;;-1.11;80.65
75414;BME280;64758;52.122;5.404;2023-02-26T06:00:15;102600.25;;;-1.12;80.36
75414;BME280;64758;52.122;5.404;2023-02-26T06:02:42;102598.59;;;-1.14;80.27
75414;BME280;64758;52.122;5.404;2023-02-26T06:05:09;102613.31;;;-1.13;80.29
75414;BME280;64758;52.122;5.404;2023-02-26T06:07:35;102607.34;;;-1.15;79.90
75414;BME280;64758;52.122;5.404;2023-02-26T06:10:02;102607.41;;;-1.17;79.51
75414;BME280;64758;52.122;5.404;2023-02-26T06:12:29;102616.84;;;-1.14;80.16
75414;BME280;64758;52.122;5.404;2023-02-26T06:14:55;102608.53;;;-1.22;79.94
75414;BME280;64758;52.122;5.404;2023-02-26T06:17:22;102612.94;;;-1.24;80.69
75414;BME280;64758;52.122;5.404;2023-02-26T06:19:48;102623.38;;;-1.24;81.02
75414;BME280;64758;52.122;5.404;2023-02-26T06:22:15;102626.13;;;-1.27;81.16
75414;BME280;64758;52.122;5.404;2023-02-26T06:24:41;102620.91;;;-1.27;80.31
75414;BME280;64758;52.122;5.404;2023-02-26T06:27:08;102641.75;;;-1.27;81.10
75414;BME280;64758;52.122;5.404;2023-02-26T06:29:34;102630.38;;;-1.25;80.21
75414;BME280;64758;52.122;5.404;2023-02-26T06:32:03;102638.22;;;-1.26;80.63
75414;BME280;64758;52.122;5.404;2023-02-26T06:34:31;102641.06;;;-1.30;80.06
75414;BME280;64758;52.122;5.404;2023-02-26T06:36:57;102651.44;;;-1.29;80.93
75414;BME280;64758;52.122;5.404;2023-02-26T06:39:24;102653.16;;;-1.29;81.33
75414;BME280;64758;52.122;5.404;2023-02-26T06:41:50;102659.38;;;-1.32;80.97
75414;BME280;64758;52.122;5.404;2023-02-26T06:44:17;102654.03;;;-1.29;81.55
75414;BME280;64758;52.122;5.404;2023-02-26T06:46:43;102652.34;;;-1.30;81.02
75414;BME280;64758;52.122;5.404;2023-02-26T06:49:10;102660.63;;;-1.22;80.66
75414;BME280;64758;52.122;5.404;2023-02-26T06:51:36;102669.84;;;-1.14;80.73
75414;BME280;64758;52.122;5.404;2023-02-26T06:54:03;102665.31;;;-1.10;81.15
75414;BME280;64758;52.122;5.404;2023-02-26T06:56:30;102674.56;;;-1.03;80.17
75414;BME280;64758;52.122;5.404;2023-02-26T06:58:56;102684.03;;;-1.01;80.75
75414;BME280;64758;52.122;5.404;2023-02-26T07:01:23;102678.72;;;-0.99;80.92
75414;BME280;64758;52.122;5.404;2023-02-26T07:03:50;102682.88;;;-0.95;81.20
75414;BME280;64758;52.122;5.404;2023-02-26T07:06:16;102689.75;;;-0.93;81.34
75414;BME280;64758;52.122;5.404;2023-02-26T07:08:53;102692.13;;;-0.88;81.47
75414;BME280;64758;52.122;5.404;2023-02-26T07:11:20;102695.38;;;-0.83;81.37
75414;BME280;64758;52.122;5.404;2023-02-26T07:13:46;102700.47;;;-0.80;81.25
75414;BME280;64758;52.122;5.404;2023-02-26T07:16:13;102713.22;;;-0.74;81.26
75414;BME280;64758;52.122;5.404;2023-02-26T07:18:40;102706.25;;;-0.74;81.34
75414;BME280;64758;52.122;5.404;2023-02-26T07:21:06;102716.47;;;-0.69;80.97
75414;BME280;64758;52.122;5.404;2023-02-26T07:23:33;102724.81;;;-0.61;81.18
75414;BME280;64758;52.122;5.404;2023-02-26T07:25:59;102721.16;;;-0.57;81.26
75414;BME280;64758;52.122;5.404;2023-02-26T07:28:27;102723.41;;;-0.50;81.65
75414;BME280;64758;52.122;5.404;2023-02-26T07:30:54;102723.28;;;-0.47;81.69
75414;BME280;64758;52.122;5.404;2023-02-26T07:33:21;102732.53;;;-0.40;80.76
75414;BME280;64758;52.122;5.404;2023-02-26T07:35:48;102721.03;;;-0.36;81.39
75414;BME280;64758;52.122;5.404;2023-02-26T07:38:15;102731.09;;;-0.28;80.97
75414;BME280;64758;52.122;5.404;2023-02-26T07:40:44;102737.59;;;-0.18;81.15
75414;BME280;64758;52.122;5.404;2023-02-26T07:43:11;102739.00;;;-0.11;80.82
75414;BME280;64758;52.122;5.404;2023-02-26T07:45:37;102743.78;;;-0.03;79.90
75414;BME280;64758;52.122;5.404;2023-02-26T07:48:04;102740.94;;;0.02;80.08
75414;BME280;64758;52.122;5.404;2023-02-26T07:50:30;102736.19;;;0.10;79.75
75414;BME280;64758;52.122;5.404;2023-02-26T07:52:58;102748.00;;;0.18;79.90
75414;BME280;64758;52.122;5.404;2023-02-26T07:55:25;102751.91;;;0.27;79.93
75414;BME280;64758;52.122;5.404;2023-02-26T07:57:52;102749.78;;;0.35;79.51
75414;BME280;64758;52.122;5.404;2023-02-26T08:00:19;102746.84;;;0.41;78.91
75414;BME280;64758;52.122;5.404;2023-02-26T08:02:46;102758.50;;;0.52;79.00
75414;BME280;64758;52.122;5.404;2023-02-26T08:05:13;102761.63;;;0.59;78.37
75414;BME280;64758;52.122;5.404;2023-02-26T08:07:39;102758.03;;;0.61;77.51
75414;BME280;64758;52.122;5.404;2023-02-26T08:10:06;102761.19;;;0.68;78.44
75414;BME280;64758;52.122;5.404;2023-02-26T08:12:33;102771.13;;;0.78;78.20
75414;BME280;64758;52.122;5.404;2023-02-26T08:15:00;102765.81;;;0.80;77.50
75414;BME280;64758;52.122;5.404;2023-02-26T08:17:26;102784.41;;;0.91;77.37
75414;BME280;64758;52.122;5.404;2023-02-26T08:19:53;102786.81;;;0.95;77.37
75414;BME280;64758;52.122;5.404;2023-02-26T08:22:20;102793.59;;;0.99;77.21
75414;BME280;64758;52.122;5.404;2023-02-26T08:24:49;102793.13;;;1.08;76.72
75414;BME280;64758;52.122;5.404;2023-02-26T08:27:17;102793.78;;;1.12;76.81
75414;BME280;64758;52.122;5.404;2023-02-26T08:29:44;102795.19;;;1.19;77.18
75414;BME280;64758;52.122;5.404;2023-02-26T08:32:12;102794.19;;;1.21;76.73
75414;BME280;64758;52.122;5.404;2023-02-26T08:34:41;102802.47;;;1.29;76.79
75414;BME280;64758;52.122;5.404;2023-02-26T08:37:07;102809.22;;;1.33;76.55
75414;BME280;64758;52.122;5.404;2023-02-26T08:39:37;102815.84;;;1.40;76.18
75414;BME280;64758;52.122;5.404;2023-02-26T08:42:08;102816.28;;;1.48;75.92
75414;BME280;64758;52.122;5.404;2023-02-26T08:44:35;102820.28;;;1.55;75.96
75414;BME280;64758;52.122;5.404;2023-02-26T08:47:02;102809.63;;;1.58;75.26
75414;BME280;64758;52.122;5.404;2023-02-26T08:49:29;102823.94;;;1.68;74.22
75414;BME280;64758;52.122;5.404;2023-02-26T08:51:55;102822.78;;;1.73;72.89
75414;BME280;64758;52.122;5.404;2023-02-26T08:54:22;102828.53;;;1.80;72.90
75414;BME280;64758;52.122;5.404;2023-02-26T08:56:49;102835.13;;;1.87;73.15
75414;BME280;64758;52.122;5.404;2023-02-26T08:59:15;102830.44;;;1.93;72.66
75414;BME280;64758;52.122;5.404;2023-02-26T09:01:42;102831.97;;;1.97;71.00
75414;BME280;64758;52.122;5.404;2023-02-26T09:04:08;102833.06;;;2.09;70.37
75414;BME280;64758;52.122;5.404;2023-02-26T09:06:35;102830.09;;;2.15;70.26
75414;BME280;64758;52.122;5.404;2023-02-26T09:09:02;102836.53;;;2.25;69.13
75414;BME280;64758;52.122;5.404;2023-02-26T09:11:29;102847.72;;;2.28;68.69
75414;BME280;64758;52.122;5.404;2023-02-26T09:13:56;102843.72;;;2.37;67.89
75414;BME280;64758;52.122;5.404;2023-02-26T09:16:25;102843.47;;;2.41;66.61
75414;BME280;64758;52.122;5.404;2023-02-26T09:18:52;102847.53;;;2.47;65.51
75414;BME280;64758;52.122;5.404;2023-02-26T09:21:18;102850.56;;;2.54;65.72
75414;BME280;64758;52.122;5.404;2023-02-26T09:23:45;102851.06;;;2.61;64.25
75414;BME280;64758;52.122;5.404;2023-02-26T09:26:11;102842.94;;;2.65;63.86
75414;BME280;64758;52.122;5.404;2023-02-26T09:28:38;102861.72;;;2.73;64.68
75414;BME280;64758;52.122;5.404;2023-02-26T09:31:05;102848.50;;;2.75;63.88
75414;BME280;64758;52.122;5.404;2023-02-26T09:33:35;102854.09;;;2.84;63.58
75414;BME280;64758;52.122;5.404;2023-02-26T09:36:02;102853.72;;;2.90;63.41
75414;BME280;64758;52.122;5.404;2023-02-26T09:38:28;102852.97;;;2.88;63.87
75414;BME280;64758;52.122;5.404;2023-02-26T09:41:02;102857.91;;;3.08;63.75
75414;BME280;64758;52.122;5.404;2023-02-26T09:46:10;102860.94;;;3.16;62.46
75414;BME280;64758;52.122;5.404;2023-02-26T09:48:40;102858.97;;;3.20;62.60
75414;BME280;64758;52.122;5.404;2023-02-26T09:51:11;102862.09;;;3.26;62.60
75414;BME280;64758;52.122;5.404;2023-02-26T09:53:41;102865.88;;;3.36;62.18
75414;BME280;64758;52.122;5.404;2023-02-26T09:56:15;102876.09;;;3.41;62.31
75414;BME280;64758;52.122;5.404;2023-02-26T09:58:43;102872.00;;;3.51;62.02
75414;BME280;64758;52.122;5.404;2023-02-26T10:01:33;102877.06;;;3.54;61.99
75414;BME280;64758;52.122;5.404;2023-02-26T10:12:18;102875.03;;;3.86;60.59
75414;BME280;64758;52.122;5.404;2023-02-26T10:17:53;102876.91;;;3.98;59.80
75414;BME280;64758;52.122;5.404;2023-02-26T10:20:52;102872.59;;;3.97;59.35
75414;BME280;64758;52.122;5.404;2023-02-26T10:23:37;102886.56;;;4.12;60.48
75414;BME280;64758;52.122;5.404;2023-02-26T10:26:11;102882.41;;;4.22;59.69
75414;BME280;64758;52.122;5.404;2023-02-26T10:32:06;102892.09;;;4.35;59.09
75414;BME280;64758;52.122;5.404;2023-02-26T10:34:48;102891.75;;;4.54;59.24
75414;BME280;64758;52.122;5.404;2023-02-26T10:37:49;102907.75;;;4.51;59.09
75414;BME280;64758;52.122;5.404;2023-02-26T10:40:37;102896.84;;;4.57;57.63
75414;BME280;64758;52.122;5.404;2023-02-26T10:43:09;102893.66;;;4.52;56.85
75414;BME280;64758;52.122;5.404;2023-02-26T10:51:39;102894.66;;;4.63;56.35
75414;BME280;64758;52.122;5.404;2023-02-26T10:56:50;102894.63;;;4.77;56.81
75414;BME280;64758;52.122;5.404;2023-02-26T10:59:17;102908.97;;;4.86;55.62
75414;BME280;64758;52.122;5.404;2023-02-26T11:01:44;102911.66;;;4.72;55.46
75414;BME280;64758;52.122;5.404;2023-02-26T11:04:14;102905.25;;;4.76;56.03
75414;BME280;64758;52.122;5.404;2023-02-26T11:06:55;102900.69;;;4.92;55.46
75414;BME280;64758;52.122;5.404;2023-02-26T11:09:31;102903.88;;;4.97;56.43
75414;BME280;64758;52.122;5.404;2023-02-26T11:12:14;102907.72;;;5.17;56.41
75414;BME280;64758;52.122;5.404;2023-02-26T11:14:42;102909.81;;;5.12;54.14
75414;BME280;64758;52.122;5.404;2023-02-26T11:17:30;102911.16;;;5.05;55.62
75414;BME280;64758;52.122;5.404;2023-02-26T11:20:01;102908.66;;;5.16;53.54
75414;BME280;64758;52.122;5.404;2023-02-26T11:22:32;102910.44;;;5.16;52.65
75414;BME280;64758;52.122;5.404;2023-02-26T11:25:02;102911.72;;;5.23;54.42
75414;BME280;64758;52.122;5.404;2023-02-26T11:27:34;102914.91;;;5.28;53.65
75414;BME280;64758;52.122;5.404;2023-02-26T11:30:14;102918.28;;;5.30;53.82
75414;BME280;64758;52.122;5.404;2023-02-26T11:32:40;102908.81;;;5.27;54.33
75414;BME280;64758;52.122;5.404;2023-02-26T11:35:13;102911.88;;;5.34;53.96
75414;BME280;64758;52.122;5.404;2023-02-26T11:37:41;102913.56;;;5.35;53.91
75414;BME280;64758;52.122;5.404;2023-02-26T11:40:16;102923.94;;;5.24;53.91
75414;BME280;64758;52.122;5.404;2023-02-26T11:42:51;102921.25;;;5.25;53.98
75414;BME280;64758;52.122;5.404;2023-02-26T11:45:19;102919.28;;;5.15;53.96
75414;BME280;64758;52.122;5.404;2023-02-26T11:47:48;102921.84;;;4.90;52.86
75414;BME280;64758;52.122;5.404;2023-02-26T11:50:20;102917.94;;;4.83;53.77
75414;BME280;64758;52.122;5.404;2023-02-26T11:52:56;102925.38;;;5.03;52.87
75414;BME280;64758;52.122;5.404;2023-02-26T11:55:34;102922.63;;;5.04;55.05
75414;BME280;64758;52.122;5.404;2023-02-26T11:58:09;102914.47;;;5.21;54.22
75414;BME280;64758;52.122;5.404;2023-02-26T12:00:40;102903.97;;;5.34;54.14
75414;BME280;64758;52.122;5.404;2023-02-26T12:03:15;102905.84;;;5.32;55.05
75414;BME280;64758;52.122;5.404;2023-02-26T12:05:42;102909.75;;;5.26;54.09
75414;BME280;64758;52.122;5.404;2023-02-26T12:08:31;102905.78;;;5.46;54.79
75414;BME280;64758;52.122;5.404;2023-02-26T12:14:00;102915.66;;;5.81;54.45
75414;BME280;64758;52.122;5.404;2023-02-26T12:17:26;102895.44;;;5.94;53.74
75414;BME280;64758;52.122;5.404;2023-02-26T12:22:40;102905.13;;;6.06;53.92
75414;BME280;64758;52.122;5.404;2023-02-26T12:39:42;102890.22;;;6.18;55.50
75414;BME280;64758;52.122;5.404;2023-02-26T12:42:33;102897.91;;;6.21;54.95
75414;BME280;64758;52.122;5.404;2023-02-26T12:45:19;102894.75;;;6.16;53.94
75414;BME280;64758;52.122;5.404;2023-02-26T12:48:15;102889.41;;;6.17;55.26
75414;BME280;64758;52.122;5.404;2023-02-26T12:53:35;102893.81;;;6.29;53.39
75414;BME280;64758;52.122;5.404;2023-02-26T12:59:11;102887.06;;;6.13;52.48
75414;BME280;64758;52.122;5.404;2023-02-26T13:04:39;102896.56;;;6.15;53.11
75414;BME280;64758;52.122;5.404;2023-02-26T13:07:17;102908.16;;;6.25;52.69
75414;BME280;64758;52.122;5.404;2023-02-26T13:10:01;102898.34;;;6.27;53.40
75414;BME280;64758;52.122;5.404;2023-02-26T13:12:55;102900.94;;;6.39;53.67
75414;BME280;64758;52.122;5.404;2023-02-26T13:18:45;102897.91;;;6.33;53.49
75414;BME280;64758;52.122;5.404;2023-02-26T13:21:34;102897.53;;;6.50;51.99
75414;BME280;64758;52.122;5.404;2023-02-26T13:24:13;102884.25;;;6.51;51.53
75414;BME280;64758;52.122;5.404;2023-02-26T13:26:41;102882.72;;;6.60;51.96
75414;BME280;64758;52.122;5.404;2023-02-26T13:32:08;102881.78;;;6.25;52.26
75414;BME280;64758;52.122;5.404;2023-02-26T13:34:47;102882.34;;;6.41;52.76
75414;BME280;64758;52.122;5.404;2023-02-26T13:37:28;102884.13;;;6.53;52.52
75414;BME280;64758;52.122;5.404;2023-02-26T13:40:10;102875.47;;;6.51;52.47
75414;BME280;64758;52.122;5.404;2023-02-26T13:42:50;102884.53;;;6.59;52.30
75414;BME280;64758;52.122;5.404;2023-02-26T13:48:50;102884.19;;;6.64;52.07
75414;BME280;64758;52.122;5.404;2023-02-26T13:51:26;102886.59;;;6.67;51.37
75414;BME280;64758;52.122;5.404;2023-02-26T13:54:07;102882.91;;;6.69;50.87
75414;BME280;64758;52.122;5.404;2023-02-26T13:59:04;102888.84;;;6.84;52.91
75414;BME280;64758;52.122;5.404;2023-02-26T14:01:54;102888.41;;;6.90;50.92
75414;BME280;64758;52.122;5.404;2023-02-26T14:04:24;102876.22;;;6.76;50.93
75414;BME280;64758;52.122;5.404;2023-02-26T14:17:17;102879.91;;;6.74;52.25
75414;BME280;64758;52.122;5.404;2023-02-26T14:19:43;102884.19;;;6.64;52.92
75414;BME280;64758;52.122;5.404;2023-02-26T14:22:32;102883.16;;;6.54;53.10
75414;BME280;64758;52.122;5.404;2023-02-26T14:33:30;102896.00;;;7.52;50.62
75414;BME280;64758;52.122;5.404;2023-02-26T14:35:57;102896.59;;;7.55;49.11
75414;BME280;64758;52.122;5.404;2023-02-26T14:38:30;102882.56;;;7.55;48.68
75414;BME280;64758;52.122;5.404;2023-02-26T14:41:07;102888.44;;;7.58;49.13
75414;BME280;64758;52.122;5.404;2023-02-26T14:43:45;102882.53;;;7.66;48.09
75414;BME280;64758;52.122;5.404;2023-02-26T14:46:17;102876.56;;;7.64;47.98
75414;BME280;64758;52.122;5.404;2023-02-26T14:48:45;102885.81;;;7.69;48.70
75414;BME280;64758;52.122;5.404;2023-02-26T14:54:14;102885.06;;;7.56;47.85
75414;BME280;64758;52.122;5.404;2023-02-26T15:13:39;102904.88;;;7.17;50.07
75414;BME280;64758;52.122;5.404;2023-02-26T15:24:18;102877.03;;;8.68;46.92
75414;BME280;64758;52.122;5.404;2023-02-26T15:26:48;102881.88;;;8.94;44.99
75414;BME280;64758;52.122;5.404;2023-02-26T15:29:17;102886.13;;;9.17;44.37
75414;BME280;64758;52.122;5.404;2023-02-26T15:31:54;102894.00;;;9.07;44.51
75414;BME280;64758;52.122;5.404;2023-02-26T15:34:22;102885.06;;;8.88;44.64
75414;BME280;64758;52.122;5.404;2023-02-26T15:36:50;102901.91;;;7.66;47.10
75414;BME280;64758;52.122;5.404;2023-02-26T15:39:21;102900.63;;;7.38;50.01
75414;BME280;64758;52.122;5.404;2023-02-26T15:41:50;102893.31;;;8.52;48.66
75414;BME280;64758;52.122;5.404;2023-02-26T15:44:30;102895.47;;;9.00;46.03
75414;BME280;64758;52.122;5.404;2023-02-26T15:47:00;102895.06;;;8.84;46.05
75414;BME280;64758;52.122;5.404;2023-02-26T15:49:33;102896.72;;;8.43;46.49
75414;BME280;64758;52.122;5.404;2023-02-26T15:52:01;102893.56;;;8.05;46.09
75414;BME280;64758;52.122;5.404;2023-02-26T15:54:38;102898.13;;;7.92;48.11